createdAt,value
2023-11-12T00:02:18.305Z,20.27
2023-11-12T00:04:45.546Z,21.33
2023-11-12T00:07:12.909Z,23.07
2023-11-12T00:09:41.210Z,20.57
2023-11-12T00:12:09.930Z,23.87
2023-11-12T00:14:37.382Z,22.10
2023-11-12T00:17:05.100Z,25.93
2023-11-12T00:19:34.275Z,21.40
2023-11-12T00:22:01.506Z,22.97
2023-11-12T00:24:29.486Z,23.37
2023-11-12T00:26:56.621Z,26.50
2023-11-12T00:29:23.957Z,24.57
2023-11-12T00:31:51.321Z,18.70
2023-11-12T00:34:19.153Z,20.83
2023-11-12T00:36:46.524Z,22.13
2023-11-12T00:39:13.811Z,19.30
2023-11-12T00:41:41.068Z,21.17
2023-11-12T00:44:12.102Z,23.20
2023-11-12T00:46:42.411Z,23.07
2023-11-12T00:49:09.940Z,21.07
2023-11-12T00:51:37.411Z,21.30
2023-11-12T00:54:04.785Z,17.70
2023-11-12T00:56:31.994Z,21.07
2023-11-12T00:58:59.230Z,19.17
2023-11-12T01:01:26.460Z,23.37
2023-11-12T01:03:54.081Z,18.63
2023-11-12T01:06:21.424Z,19.90
2023-11-12T01:08:48.693Z,21.90
2023-11-12T01:11:16.504Z,23.43
2023-11-12T01:13:44.438Z,22.90
2023-11-12T01:16:11.680Z,20.07
2023-11-12T01:18:41.778Z,23.43
2023-11-12T01:21:10.347Z,21.73
2023-11-12T01:23:38.197Z,17.80
2023-11-12T01:26:05.845Z,20.67
2023-11-12T01:28:35.536Z,23.17
2023-11-12T01:31:03.569Z,17.87
2023-11-12T01:33:30.937Z,21.43
2023-11-12T01:35:58.815Z,22.87
2023-11-12T01:38:26.185Z,22.20
2023-11-12T01:40:54.134Z,20.53
2023-11-12T01:43:22.173Z,19.67
2023-11-12T01:45:50.798Z,21.13
2023-11-12T01:48:18.291Z,20.93
2023-11-12T01:50:45.831Z,21.77
2023-11-12T01:53:14.626Z,19.97
2023-11-12T01:55:42.288Z,22.03
2023-11-12T01:58:12.793Z,24.97
2023-11-12T02:00:41.061Z,22.87
2023-11-12T02:03:08.899Z,21.47
2023-11-12T02:05:36.674Z,19.57
2023-11-12T02:08:06.346Z,22.60
2023-11-12T02:10:37.536Z,16.83
2023-11-12T02:13:05.846Z,17.77
2023-11-12T02:15:33.848Z,16.97
2023-11-12T02:18:01.187Z,19.83
2023-11-12T02:20:28.571Z,17.87
2023-11-12T02:22:55.900Z,18.53
2023-11-12T02:25:23.157Z,15.90
2023-11-12T02:27:50.567Z,21.53
2023-11-12T02:30:20.362Z,24.77
2023-11-12T02:32:48.767Z,15.30
2023-11-12T02:35:16.463Z,19.80
2023-11-12T02:37:43.723Z,16.37
2023-11-12T02:40:11.278Z,17.23
2023-11-12T02:42:38.844Z,14.43
2023-11-12T02:45:06.994Z,16.27
2023-11-12T02:47:34.305Z,15.60
2023-11-12T02:50:07.815Z,15.37
2023-11-12T02:52:35.248Z,17.07
2023-11-12T02:55:02.544Z,14.83
2023-11-12T02:57:29.777Z,15.60
2023-11-12T02:59:56.995Z,13.33
2023-11-12T03:02:24.171Z,17.57
2023-11-12T03:04:51.768Z,15.17
2023-11-12T03:07:22.010Z,15.73
2023-11-12T03:09:49.612Z,13.13
2023-11-12T03:12:17.111Z,12.97
2023-11-12T03:14:44.539Z,12.70
2023-11-12T03:17:12.013Z,13.83
2023-11-12T03:19:39.260Z,14.67
2023-11-12T03:22:06.694Z,14.90
2023-11-12T03:24:33.938Z,13.20
2023-11-12T03:27:01.148Z,14.43
2023-11-12T03:29:28.367Z,14.73
2023-11-12T03:31:56.348Z,13.40
2023-11-12T03:34:25.859Z,13.83
2023-11-12T03:36:53.269Z,14.97
2023-11-12T03:39:20.550Z,17.77
2023-11-12T03:41:47.832Z,14.83
2023-11-12T03:44:15.875Z,15.10
2023-11-12T03:46:43.127Z,14.80
2023-11-12T03:49:10.322Z,16.27
2023-11-12T03:51:38.555Z,16.37
2023-11-12T03:54:05.940Z,13.83
2023-11-12T03:56:33.347Z,13.13
2023-11-12T03:59:01.421Z,13.60
2023-11-12T04:01:28.866Z,13.33
2023-11-12T04:03:56.308Z,16.03
2023-11-12T04:06:23.610Z,21.53
2023-11-12T04:08:51.125Z,13.97
2023-11-12T04:11:18.340Z,12.77
2023-11-12T04:13:45.562Z,12.33
2023-11-12T04:16:13.614Z,12.73
2023-11-12T04:18:40.921Z,14.03
2023-11-12T04:21:08.183Z,15.43
2023-11-12T04:23:35.986Z,13.33
2023-11-12T04:26:03.174Z,19.53
2023-11-12T04:28:30.623Z,15.50
2023-11-12T04:30:58.325Z,15.53
2023-11-12T04:33:25.994Z,12.70
2023-11-12T04:35:53.807Z,12.33
2023-11-12T04:38:21.703Z,14.67
2023-11-12T04:40:50.088Z,14.20
2023-11-12T04:43:17.762Z,14.80
2023-11-12T04:48:12.938Z,14.27
2023-11-12T04:50:40.830Z,14.20
2023-11-12T04:53:08.301Z,15.13
2023-11-12T04:55:35.512Z,12.70
2023-11-12T04:58:02.841Z,12.63
2023-11-12T05:00:30.253Z,11.63
2023-11-12T05:02:57.727Z,11.57
2023-11-12T05:05:24.921Z,15.37
2023-11-12T05:07:52.113Z,12.77
2023-11-12T05:10:19.383Z,13.33
2023-11-12T05:12:46.980Z,14.23
2023-11-12T05:15:14.842Z,14.37
2023-11-12T05:17:42.035Z,14.17
2023-11-12T05:20:09.431Z,12.70
2023-11-12T05:22:36.819Z,16.77
2023-11-12T05:25:04.066Z,11.93
2023-11-12T05:27:31.412Z,12.63
2023-11-12T05:29:58.700Z,12.57
2023-11-12T05:32:25.913Z,12.30
2023-11-12T05:34:53.351Z,12.37
2023-11-12T05:37:20.532Z,11.30
2023-11-12T05:39:47.814Z,12.60
2023-11-12T05:42:15.136Z,13.50
2023-11-12T05:44:42.389Z,11.87
2023-11-12T05:47:09.550Z,17.80
2023-11-12T05:49:36.715Z,15.30
2023-11-12T05:52:03.961Z,11.90
2023-11-12T05:54:31.181Z,14.47
2023-11-12T05:56:58.950Z,12.23
2023-11-12T05:59:26.156Z,12.27
2023-11-12T06:01:53.405Z,13.30
2023-11-12T06:04:20.676Z,12.27
2023-11-12T06:06:47.931Z,12.73
2023-11-12T06:09:15.185Z,11.03
2023-11-12T06:11:42.469Z,11.50
2023-11-12T06:14:09.824Z,15.37
2023-11-12T06:16:37.023Z,12.03
2023-11-12T06:19:04.321Z,12.70
2023-11-12T06:21:31.559Z,13.97
2023-11-12T06:23:58.857Z,13.80
2023-11-12T06:26:26.109Z,11.47
2023-11-12T06:28:53.733Z,14.60
2023-11-12T06:31:21.020Z,11.23
2023-11-12T06:33:48.248Z,13.13
2023-11-12T06:38:58.566Z,15.77
2023-11-12T06:41:25.844Z,14.07
2023-11-12T06:43:53.082Z,17.97
2023-11-12T06:46:20.340Z,14.43
2023-11-12T06:48:47.636Z,13.90
2023-11-12T06:51:25.248Z,17.93
2023-11-12T06:53:52.879Z,18.33
2023-11-12T06:56:20.105Z,17.97
2023-11-12T06:58:49.552Z,17.27
2023-11-12T07:01:16.795Z,18.00
2023-11-12T07:03:44.291Z,16.57
2023-11-12T07:06:12.216Z,19.37
2023-11-12T07:08:41.424Z,17.53
2023-11-12T07:11:08.865Z,20.43
2023-11-12T07:13:36.845Z,17.13
2023-11-12T07:16:05.615Z,16.17
2023-11-12T07:18:39.054Z,15.87
2023-11-12T07:21:13.452Z,17.63
2023-11-12T07:23:40.915Z,17.60
2023-11-12T07:26:08.255Z,14.87
2023-11-12T07:28:35.498Z,18.60
2023-11-12T07:31:04.226Z,18.13
2023-11-12T07:33:31.458Z,19.00
2023-11-12T07:35:59.703Z,18.47
2023-11-12T07:38:26.899Z,18.40
2023-11-12T07:40:54.328Z,20.70
2023-11-12T07:43:21.545Z,17.67
2023-11-12T07:45:48.821Z,19.00
2023-11-12T07:48:16.216Z,18.30
2023-11-12T07:50:43.587Z,16.53
2023-11-12T07:53:10.927Z,16.97
2023-11-12T07:55:39.386Z,16.67
2023-11-12T07:58:06.675Z,16.20
2023-11-12T08:00:33.996Z,16.80
2023-11-12T08:03:01.461Z,16.17
2023-11-12T08:05:28.833Z,17.67
2023-11-12T08:07:56.468Z,18.80
2023-11-12T08:10:23.701Z,15.37
2023-11-12T08:12:50.823Z,19.23
2023-11-12T08:15:18.089Z,16.27
2023-11-12T08:17:47.267Z,15.43
2023-11-12T08:20:14.949Z,14.37
2023-11-12T08:22:42.283Z,14.70
2023-11-12T08:25:11.536Z,15.13
2023-11-12T08:27:39.520Z,14.80
2023-11-12T08:30:07.386Z,13.73
2023-11-12T08:32:36.563Z,12.93
2023-11-12T08:35:04.071Z,16.07
2023-11-12T08:37:31.377Z,18.00
2023-11-12T08:39:58.596Z,18.43
2023-11-12T08:42:27.991Z,13.23
2023-11-12T08:44:56.085Z,14.57
2023-11-12T08:47:24.226Z,15.30
2023-11-12T08:49:51.577Z,13.47
2023-11-12T08:52:19.154Z,14.67
2023-11-12T08:54:46.872Z,14.83
2023-11-12T08:57:14.281Z,15.70
2023-11-12T08:59:41.479Z,16.43
2023-11-12T09:02:08.719Z,16.50
2023-11-12T09:04:36.403Z,19.77
2023-11-12T09:07:03.963Z,21.73
2023-11-12T09:09:31.267Z,18.17
2023-11-12T09:11:58.854Z,21.00
2023-11-12T09:14:26.192Z,20.83
2023-11-12T09:16:53.564Z,17.20
2023-11-12T09:19:20.812Z,17.17
2023-11-12T09:21:48.061Z,17.53
2023-11-12T09:24:15.298Z,21.47
2023-11-12T09:26:42.634Z,21.30
2023-11-12T09:29:10.538Z,22.80
2023-11-12T09:31:37.909Z,25.03
2023-11-12T09:34:05.293Z,17.90
2023-11-12T09:36:33.096Z,19.70
2023-11-12T09:39:00.316Z,17.57
2023-11-12T09:41:27.978Z,16.30
2023-11-12T09:43:59.407Z,19.67
2023-11-12T09:46:27.113Z,23.43
2023-11-12T09:48:54.750Z,27.47
2023-11-12T09:51:22.924Z,29.10
2023-11-12T09:53:51.937Z,19.80
2023-11-12T09:56:19.282Z,20.37
2023-11-12T09:58:46.899Z,15.47
2023-11-12T10:01:14.950Z,18.63
2023-11-12T10:03:44.216Z,18.93
2023-11-12T10:06:12.205Z,18.23
2023-11-12T10:08:39.723Z,19.07
2023-11-12T10:11:19.881Z,26.10
2023-11-12T10:13:47.901Z,20.13
2023-11-12T10:16:32.116Z,22.23
2023-11-12T10:19:15.482Z,18.83
2023-11-12T10:21:56.645Z,17.33
2023-11-12T10:24:31.204Z,14.73
2023-11-12T10:27:12.522Z,17.03
2023-11-12T10:29:40.684Z,20.13
2023-11-12T10:32:08.022Z,14.97
2023-11-12T10:34:35.587Z,18.27
2023-11-12T10:37:06.102Z,16.17
2023-11-12T10:39:36.577Z,15.10
2023-11-12T10:42:03.826Z,16.33
2023-11-12T10:44:35.031Z,16.17
2023-11-12T10:47:08.204Z,14.87
2023-11-12T10:49:36.916Z,16.90
2023-11-12T10:52:09.870Z,16.93
2023-11-12T10:54:38.048Z,17.00
2023-11-12T10:57:06.202Z,15.80
2023-11-12T10:59:34.855Z,15.67
2023-11-12T11:02:02.677Z,15.93
2023-11-12T11:04:30.800Z,14.73
2023-11-12T11:06:58.724Z,15.40
2023-11-12T11:09:27.750Z,14.07
2023-11-12T11:11:58.325Z,16.60
2023-11-12T11:14:28.608Z,15.23
2023-11-12T11:16:59.192Z,12.33
2023-11-12T11:19:50.203Z,14.80
2023-11-12T11:22:28.117Z,19.33
2023-11-12T11:25:00.454Z,20.47
2023-11-12T11:27:28.252Z,14.47
2023-11-12T11:30:12.373Z,13.37
2023-11-12T11:32:56.843Z,13.03
2023-11-12T11:35:25.838Z,14.20
2023-11-12T11:38:12.705Z,13.83
2023-11-12T11:40:41.135Z,12.00
2023-11-12T11:43:24.757Z,11.80
2023-11-12T11:46:10.997Z,12.07
2023-11-12T11:48:58.447Z,12.03
2023-11-12T11:51:40.086Z,9.73
2023-11-12T11:54:08.954Z,9.97
2023-11-12T11:56:36.113Z,10.97
2023-11-12T11:59:04.131Z,10.13
2023-11-12T12:01:31.329Z,15.03
2023-11-12T12:04:06.928Z,11.37
2023-11-12T12:06:34.881Z,11.87
2023-11-12T12:09:02.256Z,13.77
2023-11-12T12:11:29.449Z,9.77
2023-11-12T12:13:57.969Z,9.33
2023-11-12T12:16:33.517Z,6.67
2023-11-12T12:19:01.914Z,10.70
2023-11-12T12:21:29.697Z,9.97
2023-11-12T12:23:57.610Z,12.37
2023-11-12T12:26:27.906Z,13.27
2023-11-12T12:28:56.062Z,10.70
2023-11-12T12:31:28.496Z,13.17
2023-11-12T12:34:10.950Z,10.93
2023-11-12T12:36:38.473Z,10.13
2023-11-12T12:39:10.178Z,12.37
2023-11-12T12:41:39.195Z,12.23
2023-11-12T12:44:08.472Z,12.63
2023-11-12T12:46:46.907Z,18.80
2023-11-12T12:49:26.453Z,10.53
2023-11-12T12:51:53.761Z,11.17
2023-11-12T12:54:21.111Z,7.63
2023-11-12T12:56:50.084Z,9.20
2023-11-12T12:59:17.399Z,7.80
2023-11-12T13:01:47.824Z,9.57
2023-11-12T13:04:15.644Z,10.43
2023-11-12T13:06:44.178Z,11.53
2023-11-12T13:09:20.070Z,11.73
2023-11-12T13:11:47.376Z,13.97
2023-11-12T13:14:14.631Z,12.77
2023-11-12T13:16:41.969Z,15.80
2023-11-12T13:19:15.488Z,15.17
2023-11-12T13:21:54.370Z,16.40
2023-11-12T13:24:27.369Z,30.00
2023-11-12T13:26:54.691Z,20.00
2023-11-12T13:29:23.714Z,14.37
2023-11-12T13:31:52.240Z,16.97
2023-11-12T13:34:19.695Z,16.77
2023-11-12T13:36:47.178Z,16.20
2023-11-12T13:39:15.653Z,14.23
2023-11-12T13:41:42.846Z,12.60
2023-11-12T13:44:10.994Z,14.83
2023-11-12T13:46:38.233Z,12.23
2023-11-12T13:49:07.138Z,13.37
2023-11-12T13:51:37.092Z,13.13
2023-11-12T13:54:07.771Z,13.33
2023-11-12T13:56:38.373Z,11.33
2023-11-12T13:59:06.246Z,11.63
2023-11-12T14:01:33.773Z,15.90
2023-11-12T14:04:01.668Z,14.60
2023-11-12T14:06:29.128Z,15.20
2023-11-12T14:08:57.327Z,15.60
2023-11-12T14:11:24.479Z,14.83
2023-11-12T14:13:52.299Z,18.60
2023-11-12T14:16:24.332Z,16.50
2023-11-12T14:18:52.299Z,16.87
2023-11-12T14:21:19.809Z,12.40
2023-11-12T14:23:47.160Z,11.43
2023-11-12T14:26:16.356Z,12.70
2023-11-12T14:28:43.778Z,14.37
2023-11-12T14:31:12.076Z,12.10
2023-11-12T14:33:40.216Z,10.13
2023-11-12T14:36:12.246Z,8.50
2023-11-12T14:38:39.813Z,8.23
2023-11-12T14:41:08.279Z,11.67
2023-11-12T14:43:38.658Z,8.80
2023-11-12T14:46:06.458Z,10.47
2023-11-12T14:48:36.802Z,10.43
2023-11-12T14:51:06.684Z,9.43
2023-11-12T14:53:34.210Z,8.70
2023-11-12T14:56:01.459Z,7.73
2023-11-12T14:58:28.736Z,8.10
2023-11-12T15:00:56.035Z,8.13
2023-11-12T15:03:26.333Z,9.93
2023-11-12T15:05:55.347Z,6.40
2023-11-12T15:08:23.410Z,12.17
2023-11-12T15:10:50.729Z,14.70
2023-11-12T15:13:17.988Z,18.20
2023-11-12T15:15:45.943Z,12.47
2023-11-12T15:18:15.452Z,10.93
2023-11-12T15:20:44.872Z,11.30
2023-11-12T15:23:12.173Z,11.60
2023-11-12T15:25:40.243Z,11.27
2023-11-12T15:28:08.107Z,12.67
2023-11-12T15:30:35.423Z,26.20
2023-11-12T15:33:02.889Z,31.60
2023-11-12T15:35:30.048Z,30.07
2023-11-12T15:37:57.760Z,24.77
2023-11-12T15:40:25.054Z,14.67
2023-11-12T15:42:53.507Z,12.23
2023-11-12T15:45:24.705Z,16.23
2023-11-12T15:47:52.250Z,18.63
2023-11-12T15:50:20.065Z,12.10
2023-11-12T15:52:47.505Z,14.97
2023-11-12T15:55:16.003Z,12.60
2023-11-12T15:57:43.399Z,13.50
2023-11-12T16:00:15.192Z,15.80
2023-11-12T16:02:43.730Z,14.90
2023-11-12T16:05:11.144Z,14.47
2023-11-12T16:07:38.513Z,15.57
2023-11-12T16:10:11.654Z,14.33
2023-11-12T16:12:39.222Z,13.17
2023-11-12T16:15:12.546Z,19.80
2023-11-12T16:17:41.055Z,16.30
2023-11-12T16:20:09.836Z,17.70
2023-11-12T16:22:38.939Z,16.10
2023-11-12T16:25:08.903Z,17.17
2023-11-12T16:27:36.425Z,17.03
2023-11-12T16:30:04.308Z,18.20
2023-11-12T16:32:31.768Z,13.97
2023-11-12T16:35:00.536Z,15.03
2023-11-12T16:37:27.885Z,20.53
2023-11-12T16:39:55.348Z,22.33
2023-11-12T16:42:25.946Z,20.07
2023-11-12T16:44:53.171Z,16.63
2023-11-12T16:47:24.901Z,18.83
2023-11-12T16:49:54.621Z,19.57
2023-11-12T16:52:22.121Z,17.40
2023-11-12T16:54:49.405Z,17.00
2023-11-12T16:57:17.146Z,20.17
2023-11-12T16:59:44.361Z,17.03
2023-11-12T17:02:14.957Z,18.33
2023-11-12T17:04:42.496Z,16.97
2023-11-12T17:07:12.443Z,19.57
2023-11-12T17:09:40.513Z,21.00
2023-11-12T17:12:08.144Z,17.83
2023-11-12T17:14:37.020Z,18.50
2023-11-12T17:17:04.485Z,22.47
2023-11-12T17:19:31.858Z,16.47
2023-11-12T17:21:59.417Z,17.30
2023-11-12T17:24:26.680Z,15.83
2023-11-12T17:26:55.023Z,21.33
2023-11-12T17:29:22.532Z,20.90
2023-11-12T17:31:50.074Z,19.20
2023-11-12T17:34:17.440Z,28.73
2023-11-12T17:36:44.761Z,26.77
2023-11-12T17:39:17.618Z,26.77
2023-11-12T17:41:48.627Z,25.63
2023-11-12T17:44:16.323Z,26.97
2023-11-12T17:46:45.904Z,28.17
2023-11-12T17:49:13.713Z,47.97
2023-11-12T17:51:42.513Z,41.07
2023-11-12T17:54:12.894Z,41.60
2023-11-12T17:56:40.121Z,35.63
2023-11-12T17:59:08.174Z,35.87
2023-11-12T18:01:35.436Z,36.57
2023-11-12T18:04:03.199Z,29.43
2023-11-12T18:06:32.041Z,40.57
2023-11-12T18:08:59.196Z,52.97
2023-11-12T18:11:26.328Z,34.53
2023-11-12T18:13:53.577Z,25.93
2023-11-12T18:16:22.577Z,24.40
2023-11-12T18:18:50.175Z,16.57
2023-11-12T18:21:17.458Z,17.77
2023-11-12T18:23:44.696Z,16.30
2023-11-12T18:26:14.378Z,20.90
2023-11-12T18:28:41.604Z,20.13
2023-11-12T18:31:09.098Z,19.30
2023-11-12T18:33:36.533Z,25.00
2023-11-12T18:36:03.882Z,26.38
2023-11-12T18:38:33.202Z,21.43
2023-11-12T18:41:01.670Z,18.33
2023-11-12T18:43:28.933Z,19.00
2023-11-12T18:45:57.814Z,19.17
2023-11-12T18:48:26.079Z,18.03
2023-11-12T18:54:40.098Z,19.37
2023-11-12T18:57:07.666Z,13.02
2023-11-12T18:59:34.918Z,11.97
2023-11-12T19:02:02.706Z,13.97
2023-11-12T19:04:31.360Z,15.17
2023-11-12T19:06:58.623Z,15.70
2023-11-12T19:09:27.070Z,16.70
2023-11-12T19:11:54.675Z,20.00
2023-11-12T19:14:22.129Z,20.93
2023-11-12T19:16:49.446Z,19.27
2023-11-12T19:19:16.715Z,22.20
2023-11-12T19:21:44.009Z,25.23
2023-11-12T19:24:11.492Z,24.30
2023-11-12T19:26:38.830Z,22.77
2023-11-12T19:29:06.028Z,29.63
2023-11-12T19:31:34.332Z,25.40
2023-11-12T19:34:01.946Z,24.00
2023-11-12T19:36:29.224Z,19.80
2023-11-12T19:38:56.548Z,21.63
2023-11-12T19:41:25.506Z,19.13
2023-11-12T19:43:54.403Z,15.03
2023-11-12T19:46:21.771Z,18.70
2023-11-12T19:48:49.298Z,17.83
2023-11-12T19:51:16.442Z,22.17
2023-11-12T19:53:43.702Z,31.07
2023-11-12T19:56:10.893Z,59.67
2023-11-12T19:58:38.901Z,40.03
2023-11-12T20:01:06.274Z,51.37
2023-11-12T20:03:33.980Z,72.20
2023-11-12T20:06:02.781Z,58.80
2023-11-12T20:08:30.373Z,51.63
2023-11-12T20:10:57.536Z,45.30
2023-11-12T20:13:25.122Z,38.07
2023-11-12T20:15:53.870Z,26.27
2023-11-12T20:18:22.147Z,24.07
2023-11-12T20:20:49.545Z,26.47
2023-11-12T20:23:16.855Z,29.83
2023-11-12T20:25:44.060Z,28.80
2023-11-12T20:28:14.797Z,24.37
2023-11-12T20:30:45.940Z,22.10
2023-11-12T20:33:17.425Z,21.60
2023-11-12T20:35:48.341Z,24.90
2023-11-12T20:38:16.452Z,24.80
2023-11-12T20:40:43.659Z,27.07
2023-11-12T20:43:12.104Z,23.03
2023-11-12T20:45:41.697Z,24.07
2023-11-12T20:48:09.051Z,23.87
2023-11-12T20:50:39.298Z,26.50
2023-11-12T20:53:09.100Z,22.07
2023-11-12T20:55:40.102Z,23.57
2023-11-12T20:58:14.369Z,23.43
2023-11-12T21:00:44.527Z,25.83
2023-11-12T21:03:11.885Z,23.57
2023-11-12T21:05:39.161Z,21.57
2023-11-12T21:08:07.342Z,24.33
2023-11-12T21:10:35.792Z,21.57
2023-11-12T21:13:03.133Z,24.50
2023-11-12T21:15:30.313Z,25.97
2023-11-12T21:17:57.598Z,25.97
2023-11-12T21:20:24.949Z,23.67
2023-11-12T21:22:52.154Z,21.33
2023-11-12T21:25:21.746Z,23.60
2023-11-12T21:27:49.401Z,18.93
2023-11-12T21:30:22.313Z,20.00
2023-11-12T21:32:49.718Z,21.53
2023-11-12T21:35:17.039Z,18.53
2023-11-12T21:37:45.041Z,22.60
2023-11-12T21:40:14.445Z,21.13
2023-11-12T21:42:43.740Z,23.30
2023-11-12T21:45:11.596Z,22.17
2023-11-12T21:47:40.885Z,21.33
2023-11-12T21:50:10.807Z,23.90
2023-11-12T21:52:38.005Z,19.93
2023-11-12T21:55:05.483Z,23.50
2023-11-12T21:57:32.946Z,26.33
2023-11-12T22:00:00.228Z,26.07
2023-11-12T22:02:29.795Z,27.37
2023-11-12T22:04:57.089Z,23.93
2023-11-12T22:07:26.018Z,29.23
2023-11-12T22:09:53.460Z,29.57
2023-11-12T22:12:20.814Z,25.17
2023-11-12T22:14:52.806Z,21.77
2023-11-12T22:17:20.019Z,23.73
2023-11-12T22:19:51.446Z,23.53
2023-11-12T22:22:19.999Z,26.37
2023-11-12T22:24:47.533Z,31.00
2023-11-12T22:27:14.928Z,39.07
2023-11-12T22:29:42.089Z,35.13
2023-11-12T22:32:11.577Z,33.97
2023-11-12T22:34:38.728Z,28.77
2023-11-12T22:37:05.893Z,21.67
2023-11-12T22:39:33.693Z,20.30
2023-11-12T22:42:00.999Z,22.23
2023-11-12T22:44:28.221Z,18.67
2023-11-12T22:46:55.570Z,19.13
2023-11-12T22:49:22.946Z,19.87
2023-11-12T22:51:50.177Z,16.60
2023-11-12T22:54:17.428Z,18.93
2023-11-12T22:56:44.760Z,18.57
2023-11-12T22:59:12.034Z,23.30
2023-11-12T23:01:40.304Z,18.67
2023-11-12T23:04:09.236Z,20.13
2023-11-12T23:06:36.447Z,20.27
2023-11-12T23:09:08.080Z,18.10
2023-11-12T23:11:37.867Z,18.07
2023-11-12T23:14:05.300Z,16.40
2023-11-12T23:16:33.429Z,15.67
2023-11-12T23:19:01.106Z,14.67
2023-11-12T23:21:28.698Z,14.67
2023-11-12T23:23:56.714Z,18.83
2023-11-12T23:26:25.758Z,14.67
2023-11-12T23:28:53.086Z,17.67
2023-11-12T23:31:23.807Z,14.63
2023-11-12T23:33:51.362Z,15.73
2023-11-12T23:36:18.707Z,14.10
2023-11-12T23:38:46.331Z,16.47
2023-11-12T23:41:13.525Z,17.67
2023-11-12T23:43:40.939Z,16.13
2023-11-12T23:46:09.280Z,13.23
2023-11-12T23:48:38.174Z,16.53
2023-11-12T23:51:05.899Z,12.27
2023-11-12T23:53:33.574Z,13.70
2023-11-12T23:56:00.920Z,15.77
2023-11-12T23:58:28.096Z,13.13
